sensor_id;sensor_type;location;lat;lon;timestamp;P1;durP1;ratioP1;P2;durP2;ratioP2
44832;SDS011;30569;51.252;9.830;2023-06-26T00:00:29;7.95;;;4.45;;
44832;SDS011;30569;51.252;9.830;2023-06-26T00:02:57;12.57;;;4.50;;
44832;SDS011;30569;51.252;9.830;2023-06-26T00:05:22;6.55;;;4.47;;
44832;SDS011;30569;51.252;9.830;2023-06-26T00:07:49;7.90;;;4.07;;
44832;SDS011;30569;51.252;9.830;2023-06-26T00:10:14;8.38;;;4.50;;
44832;SDS011;30569;51.252;9.830;2023-06-26T00:12:41;9.65;;;5.00;;
44832;SDS011;30569;51.252;9.830;2023-06-26T00:15:07;8.85;;;4.90;;
44832;SDS011;30569;51.252;9.830;2023-06-26T00:17:33;8.00;;;4.63;;
44832;SDS011;30569;51.252;9.830;2023-06-26T00:20:02;8.88;;;4.70;;
44832;SDS011;30569;51.252;9.830;2023-06-26T00:22:30;7.80;;;4.82;;
44832;SDS011;30569;51.252;9.830;2023-06-26T00:24:56;7.13;;;4.20;;
44832;SDS011;30569;51.252;9.830;2023-06-26T00:27:22;7.25;;;4.50;;
44832;SDS011;30569;51.252;9.830;2023-06-26T00:29:47;8.43;;;4.70;;
44832;SDS011;30569;51.252;9.830;2023-06-26T00:32:13;7.07;;;4.93;;
44832;SDS011;30569;51.252;9.830;2023-06-26T00:34:39;7.07;;;4.80;;
44832;SDS011;30569;51.252;9.830;2023-06-26T00:37:05;7.07;;;4.38;;
44832;SDS011;30569;51.252;9.830;2023-06-26T00:39:31;6.85;;;4.43;;
44832;SDS011;30569;51.252;9.830;2023-06-26T00:41:57;9.25;;;5.00;;
44832;SDS011;30569;51.252;9.830;2023-06-26T00:44:23;10.82;;;5.05;;
44832;SDS011;30569;51.252;9.830;2023-06-26T00:46:49;9.43;;;4.93;;
44832;SDS011;30569;51.252;9.830;2023-06-26T00:49:15;7.15;;;4.45;;
44832;SDS011;30569;51.252;9.830;2023-06-26T00:51:41;10.43;;;4.90;;
44832;SDS011;30569;51.252;9.830;2023-06-26T00:54:07;7.10;;;4.57;;
44832;SDS011;30569;51.252;9.830;2023-06-26T00:56:33;8.80;;;4.60;;
44832;SDS011;30569;51.252;9.830;2023-06-26T00:59:00;10.45;;;4.63;;
44832;SDS011;30569;51.252;9.830;2023-06-26T01:01:26;8.55;;;4.57;;
44832;SDS011;30569;51.252;9.830;2023-06-26T01:03:53;8.20;;;4.22;;
44832;SDS011;30569;51.252;9.830;2023-06-26T01:06:20;8.90;;;4.80;;
44832;SDS011;30569;51.252;9.830;2023-06-26T01:08:47;8.10;;;4.40;;
44832;SDS011;30569;51.252;9.830;2023-06-26T01:11:13;12.68;;;4.95;;
44832;SDS011;30569;51.252;9.830;2023-06-26T01:13:39;12.70;;;4.93;;
44832;SDS011;30569;51.252;9.830;2023-06-26T01:16:08;6.28;;;4.38;;
44832;SDS011;30569;51.252;9.830;2023-06-26T01:18:35;7.82;;;5.10;;
44832;SDS011;30569;51.252;9.830;2023-06-26T01:21:06;6.40;;;4.50;;
44832;SDS011;30569;51.252;9.830;2023-06-26T01:26:23;8.50;;;4.47;;
44832;SDS011;30569;51.252;9.830;2023-06-26T01:28:53;8.93;;;4.88;;
44832;SDS011;30569;51.252;9.830;2023-06-26T01:31:21;7.55;;;4.32;;
44832;SDS011;30569;51.252;9.830;2023-06-26T01:33:47;8.40;;;5.07;;
44832;SDS011;30569;51.252;9.830;2023-06-26T01:36:12;11.45;;;5.05;;
44832;SDS011;30569;51.252;9.830;2023-06-26T01:38:38;8.00;;;4.78;;
44832;SDS011;30569;51.252;9.830;2023-06-26T01:41:04;6.85;;;4.55;;
44832;SDS011;30569;51.252;9.830;2023-06-26T01:43:55;8.02;;;4.63;;
44832;SDS011;30569;51.252;9.830;2023-06-26T01:49:07;7.82;;;4.95;;
44832;SDS011;30569;51.252;9.830;2023-06-26T01:51:36;9.23;;;4.68;;
44832;SDS011;30569;51.252;9.830;2023-06-26T01:54:08;10.23;;;4.70;;
44832;SDS011;30569;51.252;9.830;2023-06-26T01:56:38;10.10;;;5.03;;
44832;SDS011;30569;51.252;9.830;2023-06-26T01:59:04;7.10;;;4.35;;
44832;SDS011;30569;51.252;9.830;2023-06-26T02:01:31;10.05;;;5.00;;
44832;SDS011;30569;51.252;9.830;2023-06-26T02:03:58;7.07;;;4.70;;
44832;SDS011;30569;51.252;9.830;2023-06-26T02:06:24;9.82;;;4.90;;
44832;SDS011;30569;51.252;9.830;2023-06-26T02:08:50;6.80;;;4.50;;
44832;SDS011;30569;51.252;9.830;2023-06-26T02:11:15;7.25;;;4.80;;
44832;SDS011;30569;51.252;9.830;2023-06-26T02:13:42;8.27;;;4.80;;
44832;SDS011;30569;51.252;9.830;2023-06-26T02:16:07;11.05;;;4.97;;
44832;SDS011;30569;51.252;9.830;2023-06-26T02:18:33;7.13;;;4.80;;
44832;SDS011;30569;51.252;9.830;2023-06-26T02:20:59;7.95;;;4.47;;
44832;SDS011;30569;51.252;9.830;2023-06-26T02:23:25;8.70;;;4.18;;
44832;SDS011;30569;51.252;9.830;2023-06-26T02:25:51;7.65;;;4.80;;
44832;SDS011;30569;51.252;9.830;2023-06-26T02:28:17;7.28;;;4.40;;
44832;SDS011;30569;51.252;9.830;2023-06-26T02:30:42;9.27;;;4.80;;
44832;SDS011;30569;51.252;9.830;2023-06-26T02:33:08;7.10;;;4.35;;
44832;SDS011;30569;51.252;9.830;2023-06-26T02:35:34;7.55;;;5.07;;
44832;SDS011;30569;51.252;9.830;2023-06-26T02:38:00;9.18;;;4.95;;
44832;SDS011;30569;51.252;9.830;2023-06-26T02:40:26;6.32;;;4.28;;
44832;SDS011;30569;51.252;9.830;2023-06-26T02:42:52;7.57;;;4.72;;
44832;SDS011;30569;51.252;9.830;2023-06-26T02:45:18;11.30;;;4.70;;
44832;SDS011;30569;51.252;9.830;2023-06-26T02:47:43;6.90;;;4.30;;
44832;SDS011;30569;51.252;9.830;2023-06-26T02:50:09;7.70;;;4.57;;
44832;SDS011;30569;51.252;9.830;2023-06-26T02:52:35;8.65;;;5.00;;
44832;SDS011;30569;51.252;9.830;2023-06-26T02:55:00;7.70;;;4.88;;
44832;SDS011;30569;51.252;9.830;2023-06-26T02:57:26;7.07;;;4.40;;
44832;SDS011;30569;51.252;9.830;2023-06-26T02:59:52;7.97;;;4.95;;
44832;SDS011;30569;51.252;9.830;2023-06-26T03:02:18;7.32;;;4.47;;
44832;SDS011;30569;51.252;9.830;2023-06-26T03:04:44;8.02;;;4.70;;
44832;SDS011;30569;51.252;9.830;2023-06-26T03:07:10;9.13;;;4.82;;
44832;SDS011;30569;51.252;9.830;2023-06-26T03:09:36;8.38;;;4.72;;
44832;SDS011;30569;51.252;9.830;2023-06-26T03:12:02;6.32;;;4.32;;
44832;SDS011;30569;51.252;9.830;2023-06-26T03:14:28;7.45;;;4.32;;
44832;SDS011;30569;51.252;9.830;2023-06-26T03:16:55;10.18;;;4.68;;
44832;SDS011;30569;51.252;9.830;2023-06-26T03:19:23;11.68;;;4.75;;
44832;SDS011;30569;51.252;9.830;2023-06-26T03:21:49;8.02;;;5.70;;
44832;SDS011;30569;51.252;9.830;2023-06-26T03:24:15;7.10;;;4.88;;
44832;SDS011;30569;51.252;9.830;2023-06-26T03:26:40;8.82;;;4.55;;
44832;SDS011;30569;51.252;9.830;2023-06-26T03:29:06;9.23;;;4.88;;
44832;SDS011;30569;51.252;9.830;2023-06-26T03:31:32;9.60;;;4.93;;
44832;SDS011;30569;51.252;9.830;2023-06-26T03:33:58;6.65;;;4.47;;
44832;SDS011;30569;51.252;9.830;2023-06-26T03:36:24;11.68;;;5.70;;
44832;SDS011;30569;51.252;9.830;2023-06-26T03:38:50;10.82;;;5.22;;
44832;SDS011;30569;51.252;9.830;2023-06-26T03:41:18;7.70;;;5.60;;
44832;SDS011;30569;51.252;9.830;2023-06-26T03:43:43;8.38;;;4.93;;
44832;SDS011;30569;51.252;9.830;2023-06-26T03:46:09;8.45;;;4.78;;
44832;SDS011;30569;51.252;9.830;2023-06-26T03:48:34;7.82;;;5.47;;
44832;SDS011;30569;51.252;9.830;2023-06-26T03:51:00;12.27;;;5.30;;
44832;SDS011;30569;51.252;9.830;2023-06-26T03:53:27;8.02;;;5.60;;
44832;SDS011;30569;51.252;9.830;2023-06-26T03:55:52;7.70;;;5.43;;
44832;SDS011;30569;51.252;9.830;2023-06-26T03:58:18;9.38;;;5.38;;
44832;SDS011;30569;51.252;9.830;2023-06-26T04:00:44;12.43;;;5.07;;
44832;SDS011;30569;51.252;9.830;2023-06-26T04:03:12;7.35;;;4.88;;
44832;SDS011;30569;51.252;9.830;2023-06-26T04:05:37;9.50;;;5.35;;
44832;SDS011;30569;51.252;9.830;2023-06-26T04:08:03;11.20;;;5.80;;
44832;SDS011;30569;51.252;9.830;2023-06-26T04:10:29;8.73;;;5.60;;
44832;SDS011;30569;51.252;9.830;2023-06-26T04:12:55;9.10;;;5.18;;
44832;SDS011;30569;51.252;9.830;2023-06-26T04:15:21;8.43;;;5.03;;
44832;SDS011;30569;51.252;9.830;2023-06-26T04:17:47;8.55;;;5.28;;
44832;SDS011;30569;51.252;9.830;2023-06-26T04:20:13;7.93;;;5.65;;
44832;SDS011;30569;51.252;9.830;2023-06-26T04:22:40;8.60;;;6.00;;
44832;SDS011;30569;51.252;9.830;2023-06-26T04:25:06;10.80;;;6.60;;
44832;SDS011;30569;51.252;9.830;2023-06-26T04:27:32;10.40;;;5.68;;
44832;SDS011;30569;51.252;9.830;2023-06-26T04:29:57;11.50;;;6.15;;
44832;SDS011;30569;51.252;9.830;2023-06-26T04:32:23;10.73;;;5.25;;
44832;SDS011;30569;51.252;9.830;2023-06-26T04:34:49;8.85;;;5.72;;
44832;SDS011;30569;51.252;9.830;2023-06-26T04:37:15;11.63;;;5.88;;
44832;SDS011;30569;51.252;9.830;2023-06-26T04:39:42;7.40;;;5.50;;
44832;SDS011;30569;51.252;9.830;2023-06-26T04:42:08;12.05;;;6.18;;
44832;SDS011;30569;51.252;9.830;2023-06-26T04:44:37;11.38;;;5.90;;
44832;SDS011;30569;51.252;9.830;2023-06-26T04:47:03;14.90;;;6.38;;
44832;SDS011;30569;51.252;9.830;2023-06-26T04:49:28;9.88;;;6.13;;
44832;SDS011;30569;51.252;9.830;2023-06-26T04:51:56;11.45;;;6.50;;
44832;SDS011;30569;51.252;9.830;2023-06-26T04:54:25;13.27;;;6.93;;
44832;SDS011;30569;51.252;9.830;2023-06-26T04:56:51;11.07;;;6.65;;
44832;SDS011;30569;51.252;9.830;2023-06-26T04:59:17;7.18;;;5.18;;
44832;SDS011;30569;51.252;9.830;2023-06-26T05:01:43;9.07;;;5.90;;
44832;SDS011;30569;51.252;9.830;2023-06-26T05:04:13;9.30;;;6.35;;
44832;SDS011;30569;51.252;9.830;2023-06-26T05:06:39;11.23;;;6.03;;
44832;SDS011;30569;51.252;9.830;2023-06-26T05:09:05;11.55;;;6.30;;
44832;SDS011;30569;51.252;9.830;2023-06-26T05:11:31;10.75;;;6.07;;
44832;SDS011;30569;51.252;9.830;2023-06-26T05:13:56;8.90;;;6.15;;
44832;SDS011;30569;51.252;9.830;2023-06-26T05:16:22;9.93;;;6.72;;
44832;SDS011;30569;51.252;9.830;2023-06-26T05:18:48;14.02;;;7.30;;
44832;SDS011;30569;51.252;9.830;2023-06-26T05:21:13;12.93;;;7.00;;
44832;SDS011;30569;51.252;9.830;2023-06-26T05:23:40;13.88;;;7.68;;
44832;SDS011;30569;51.252;9.830;2023-06-26T05:26:09;10.23;;;7.40;;
44832;SDS011;30569;51.252;9.830;2023-06-26T05:28:35;9.55;;;6.63;;
44832;SDS011;30569;51.252;9.830;2023-06-26T05:31:02;12.63;;;6.75;;
44832;SDS011;30569;51.252;9.830;2023-06-26T05:33:30;10.15;;;5.97;;
44832;SDS011;30569;51.252;9.830;2023-06-26T05:35:59;9.13;;;6.28;;
44832;SDS011;30569;51.252;9.830;2023-06-26T05:38:27;8.82;;;6.20;;
44832;SDS011;30569;51.252;9.830;2023-06-26T05:40:53;10.15;;;5.93;;
44832;SDS011;30569;51.252;9.830;2023-06-26T05:43:19;9.85;;;5.75;;
44832;SDS011;30569;51.252;9.830;2023-06-26T05:45:46;7.40;;;5.13;;
44832;SDS011;30569;51.252;9.830;2023-06-26T05:48:13;7.47;;;4.93;;
44832;SDS011;30569;51.252;9.830;2023-06-26T05:50:38;6.78;;;4.85;;
44832;SDS011;30569;51.252;9.830;2023-06-26T05:53:07;7.72;;;5.40;;
44832;SDS011;30569;51.252;9.830;2023-06-26T05:55:32;6.82;;;4.90;;
44832;SDS011;30569;51.252;9.830;2023-06-26T05:57:58;7.95;;;4.82;;
44832;SDS011;30569;51.252;9.830;2023-06-26T06:00:25;6.90;;;4.47;;
44832;SDS011;30569;51.252;9.830;2023-06-26T06:02:52;9.63;;;4.80;;
44832;SDS011;30569;51.252;9.830;2023-06-26T06:05:19;7.47;;;4.32;;
44832;SDS011;30569;51.252;9.830;2023-06-26T06:07:45;7.53;;;4.50;;
44832;SDS011;30569;51.252;9.830;2023-06-26T06:10:10;8.23;;;4.38;;
44832;SDS011;30569;51.252;9.830;2023-06-26T06:12:36;7.82;;;4.22;;
44832;SDS011;30569;51.252;9.830;2023-06-26T06:15:01;7.25;;;4.32;;
44832;SDS011;30569;51.252;9.830;2023-06-26T06:17:27;8.45;;;4.78;;
44832;SDS011;30569;51.252;9.830;2023-06-26T06:19:53;6.22;;;4.10;;
44832;SDS011;30569;51.252;9.830;2023-06-26T06:22:18;6.13;;;3.90;;
44832;SDS011;30569;51.252;9.830;2023-06-26T06:24:44;7.00;;;4.43;;
44832;SDS011;30569;51.252;9.830;2023-06-26T06:27:10;8.18;;;4.15;;
44832;SDS011;30569;51.252;9.830;2023-06-26T06:29:36;10.27;;;4.30;;
44832;SDS011;30569;51.252;9.830;2023-06-26T06:32:01;5.88;;;3.97;;
44832;SDS011;30569;51.252;9.830;2023-06-26T06:34:27;6.72;;;4.55;;
44832;SDS011;30569;51.252;9.830;2023-06-26T06:36:53;6.40;;;4.50;;
44832;SDS011;30569;51.252;9.830;2023-06-26T06:39:18;5.72;;;4.00;;
44832;SDS011;30569;51.252;9.830;2023-06-26T06:41:44;6.10;;;3.83;;
44832;SDS011;30569;51.252;9.830;2023-06-26T06:44:09;7.45;;;4.20;;
44832;SDS011;30569;51.252;9.830;2023-06-26T06:46:36;7.07;;;4.32;;
44832;SDS011;30569;51.252;9.830;2023-06-26T06:49:02;6.68;;;4.35;;
44832;SDS011;30569;51.252;9.830;2023-06-26T06:51:29;7.78;;;4.30;;
44832;SDS011;30569;51.252;9.830;2023-06-26T06:53:54;6.63;;;4.30;;
44832;SDS011;30569;51.252;9.830;2023-06-26T06:56:20;7.70;;;4.47;;
44832;SDS011;30569;51.252;9.830;2023-06-26T06:58:46;7.50;;;4.10;;
44832;SDS011;30569;51.252;9.830;2023-06-26T07:01:12;8.13;;;4.13;;
44832;SDS011;30569;51.252;9.830;2023-06-26T07:03:38;9.02;;;4.05;;
44832;SDS011;30569;51.252;9.830;2023-06-26T07:06:04;8.73;;;4.68;;
44832;SDS011;30569;51.252;9.830;2023-06-26T07:08:30;5.70;;;3.90;;
44832;SDS011;30569;51.252;9.830;2023-06-26T07:10:55;7.38;;;5.15;;
44832;SDS011;30569;51.252;9.830;2023-06-26T07:13:24;8.48;;;4.32;;
44832;SDS011;30569;51.252;9.830;2023-06-26T07:15:50;7.15;;;4.20;;
44832;SDS011;30569;51.252;9.830;2023-06-26T07:18:16;7.03;;;3.95;;
44832;SDS011;30569;51.252;9.830;2023-06-26T07:20:42;9.77;;;4.35;;
44832;SDS011;30569;51.252;9.830;2023-06-26T07:23:08;7.22;;;4.32;;
44832;SDS011;30569;51.252;9.830;2023-06-26T07:25:33;7.90;;;4.20;;
44832;SDS011;30569;51.252;9.830;2023-06-26T07:27:59;8.00;;;4.22;;
44832;SDS011;30569;51.252;9.830;2023-06-26T07:30:25;8.15;;;4.55;;
44832;SDS011;30569;51.252;9.830;2023-06-26T07:32:51;6.38;;;4.07;;
44832;SDS011;30569;51.252;9.830;2023-06-26T07:35:16;8.07;;;4.40;;
44832;SDS011;30569;51.252;9.830;2023-06-26T07:37:42;7.38;;;4.60;;
44832;SDS011;30569;51.252;9.830;2023-06-26T07:40:08;6.68;;;4.10;;
44832;SDS011;30569;51.252;9.830;2023-06-26T07:42:34;5.95;;;3.95;;
44832;SDS011;30569;51.252;9.830;2023-06-26T07:45:00;6.25;;;4.38;;
44832;SDS011;30569;51.252;9.830;2023-06-26T07:47:26;7.72;;;4.20;;
44832;SDS011;30569;51.252;9.830;2023-06-26T07:49:52;7.55;;;4.55;;
44832;SDS011;30569;51.252;9.830;2023-06-26T07:52:18;6.30;;;3.78;;
44832;SDS011;30569;51.252;9.830;2023-06-26T07:54:44;6.28;;;4.20;;
44832;SDS011;30569;51.252;9.830;2023-06-26T07:57:10;7.95;;;4.30;;
44832;SDS011;30569;51.252;9.830;2023-06-26T07:59:38;6.68;;;4.18;;
44832;SDS011;30569;51.252;9.830;2023-06-26T08:02:04;5.82;;;4.10;;
44832;SDS011;30569;51.252;9.830;2023-06-26T08:04:30;13.00;;;4.85;;
44832;SDS011;30569;51.252;9.830;2023-06-26T08:06:57;6.30;;;4.18;;
44832;SDS011;30569;51.252;9.830;2023-06-26T08:09:24;8.52;;;4.40;;
44832;SDS011;30569;51.252;9.830;2023-06-26T08:11:52;6.63;;;3.85;;
44832;SDS011;30569;51.252;9.830;2023-06-26T08:14:18;6.28;;;4.45;;
44832;SDS011;30569;51.252;9.830;2023-06-26T08:16:44;8.63;;;3.95;;
44832;SDS011;30569;51.252;9.830;2023-06-26T08:19:10;7.35;;;4.60;;
44832;SDS011;30569;51.252;9.830;2023-06-26T08:21:36;6.20;;;4.15;;
44832;SDS011;30569;51.252;9.830;2023-06-26T08:24:01;6.20;;;4.20;;
44832;SDS011;30569;51.252;9.830;2023-06-26T08:26:27;6.53;;;4.18;;
44832;SDS011;30569;51.252;9.830;2023-06-26T08:28:53;9.05;;;4.70;;
44832;SDS011;30569;51.252;9.830;2023-06-26T08:31:19;6.15;;;4.15;;
44832;SDS011;30569;51.252;9.830;2023-06-26T08:33:48;6.45;;;4.43;;
44832;SDS011;30569;51.252;9.830;2023-06-26T08:36:14;7.72;;;4.30;;
44832;SDS011;30569;51.252;9.830;2023-06-26T08:38:41;9.52;;;4.75;;
44832;SDS011;30569;51.252;9.830;2023-06-26T08:41:06;7.88;;;4.30;;
44832;SDS011;30569;51.252;9.830;2023-06-26T08:43:32;7.93;;;4.05;;
44832;SDS011;30569;51.252;9.830;2023-06-26T08:45:59;24.20;;;4.75;;
44832;SDS011;30569;51.252;9.830;2023-06-26T08:48:25;7.63;;;3.58;;
44832;SDS011;30569;51.252;9.830;2023-06-26T08:50:52;6.68;;;3.70;;
44832;SDS011;30569;51.252;9.830;2023-06-26T08:53:29;5.43;;;3.55;;
44832;SDS011;30569;51.252;9.830;2023-06-26T08:56:04;6.68;;;3.90;;
44832;SDS011;30569;51.252;9.830;2023-06-26T08:58:32;6.97;;;3.60;;
44832;SDS011;30569;51.252;9.830;2023-06-26T09:00:58;6.07;;;3.80;;
44832;SDS011;30569;51.252;9.830;2023-06-26T09:03:25;6.78;;;3.97;;
44832;SDS011;30569;51.252;9.830;2023-06-26T09:05:51;5.95;;;3.83;;
44832;SDS011;30569;51.252;9.830;2023-06-26T09:08:16;6.97;;;3.83;;
44832;SDS011;30569;51.252;9.830;2023-06-26T09:10:42;5.97;;;3.70;;
44832;SDS011;30569;51.252;9.830;2023-06-26T09:13:08;8.68;;;3.90;;
44832;SDS011;30569;51.252;9.830;2023-06-26T09:15:37;6.10;;;3.90;;
44832;SDS011;30569;51.252;9.830;2023-06-26T09:18:04;5.35;;;3.60;;
44832;SDS011;30569;51.252;9.830;2023-06-26T09:20:30;5.65;;;3.97;;
44832;SDS011;30569;51.252;9.830;2023-06-26T09:22:58;6.28;;;3.67;;
44832;SDS011;30569;51.252;9.830;2023-06-26T09:25:24;6.88;;;3.88;;
44832;SDS011;30569;51.252;9.830;2023-06-26T09:27:50;5.82;;;3.83;;
44832;SDS011;30569;51.252;9.830;2023-06-26T09:30:18;6.28;;;3.90;;
44832;SDS011;30569;51.252;9.830;2023-06-26T09:32:45;6.10;;;4.05;;
44832;SDS011;30569;51.252;9.830;2023-06-26T09:35:10;5.30;;;3.70;;
44832;SDS011;30569;51.252;9.830;2023-06-26T09:37:36;6.38;;;4.18;;
44832;SDS011;30569;51.252;9.830;2023-06-26T09:40:02;5.57;;;4.07;;
44832;SDS011;30569;51.252;9.830;2023-06-26T09:42:29;6.18;;;4.10;;
44832;SDS011;30569;51.252;9.830;2023-06-26T09:44:55;6.10;;;3.95;;
44832;SDS011;30569;51.252;9.830;2023-06-26T09:47:21;6.07;;;4.22;;
44832;SDS011;30569;51.252;9.830;2023-06-26T09:49:47;7.15;;;3.90;;
44832;SDS011;30569;51.252;9.830;2023-06-26T09:52:16;7.25;;;4.13;;
44832;SDS011;30569;51.252;9.830;2023-06-26T09:54:43;5.22;;;3.95;;
44832;SDS011;30569;51.252;9.830;2023-06-26T09:57:12;6.15;;;4.25;;
44832;SDS011;30569;51.252;9.830;2023-06-26T09:59:40;6.35;;;3.95;;
44832;SDS011;30569;51.252;9.830;2023-06-26T10:02:06;7.25;;;4.57;;
44832;SDS011;30569;51.252;9.830;2023-06-26T10:04:33;7.05;;;4.40;;
44832;SDS011;30569;51.252;9.830;2023-06-26T10:07:01;6.63;;;4.30;;
44832;SDS011;30569;51.252;9.830;2023-06-26T10:09:28;6.57;;;4.35;;
44832;SDS011;30569;51.252;9.830;2023-06-26T10:12:02;7.30;;;4.20;;
44832;SDS011;30569;51.252;9.830;2023-06-26T10:14:32;6.50;;;4.93;;
44832;SDS011;30569;51.252;9.830;2023-06-26T10:17:06;7.05;;;4.22;;
44832;SDS011;30569;51.252;9.830;2023-06-26T10:19:39;6.38;;;4.38;;
44832;SDS011;30569;51.252;9.830;2023-06-26T10:22:06;6.80;;;4.57;;
44832;SDS011;30569;51.252;9.830;2023-06-26T10:24:33;6.88;;;4.15;;
44832;SDS011;30569;51.252;9.830;2023-06-26T10:27:04;6.20;;;4.15;;
44832;SDS011;30569;51.252;9.830;2023-06-26T10:29:36;6.32;;;4.28;;
44832;SDS011;30569;51.252;9.830;2023-06-26T10:32:02;12.02;;;4.80;;
44832;SDS011;30569;51.252;9.830;2023-06-26T10:34:31;10.93;;;4.70;;
44832;SDS011;30569;51.252;9.830;2023-06-26T10:37:00;7.35;;;4.82;;
44832;SDS011;30569;51.252;9.830;2023-06-26T10:39:32;9.75;;;4.72;;
44832;SDS011;30569;51.252;9.830;2023-06-26T10:42:20;9.68;;;4.65;;
44832;SDS011;30569;51.252;9.830;2023-06-26T10:45:08;9.95;;;5.00;;
44832;SDS011;30569;51.252;9.830;2023-06-26T10:47:54;6.40;;;4.25;;
44832;SDS011;30569;51.252;9.830;2023-06-26T10:50:29;7.47;;;5.00;;
44832;SDS011;30569;51.252;9.830;2023-06-26T10:53:08;11.70;;;5.38;;
44832;SDS011;30569;51.252;9.830;2023-06-26T10:55:56;7.78;;;4.57;;
44832;SDS011;30569;51.252;9.830;2023-06-26T11:03:38;11.88;;;5.68;;
44832;SDS011;30569;51.252;9.830;2023-06-26T11:08:49;12.48;;;5.05;;
44832;SDS011;30569;51.252;9.830;2023-06-26T11:11:18;10.90;;;5.13;;
44832;SDS011;30569;51.252;9.830;2023-06-26T11:13:45;14.63;;;5.50;;
44832;SDS011;30569;51.252;9.830;2023-06-26T11:16:12;10.10;;;5.95;;
44832;SDS011;30569;51.252;9.830;2023-06-26T11:18:38;11.88;;;6.53;;
44832;SDS011;30569;51.252;9.830;2023-06-26T11:21:11;8.88;;;5.60;;
44832;SDS011;30569;51.252;9.830;2023-06-26T11:23:39;10.70;;;6.00;;
44832;SDS011;30569;51.252;9.830;2023-06-26T11:28:50;8.93;;;5.72;;
44832;SDS011;30569;51.252;9.830;2023-06-26T11:31:23;12.35;;;6.25;;
44832;SDS011;30569;51.252;9.830;2023-06-26T11:33:53;9.43;;;6.28;;
44832;SDS011;30569;51.252;9.830;2023-06-26T11:36:21;12.57;;;6.68;;
44832;SDS011;30569;51.252;9.830;2023-06-26T11:38:53;9.80;;;6.38;;
44832;SDS011;30569;51.252;9.830;2023-06-26T11:41:20;9.75;;;6.43;;
44832;SDS011;30569;51.252;9.830;2023-06-26T11:43:46;9.57;;;6.15;;
44832;SDS011;30569;51.252;9.830;2023-06-26T11:46:12;10.93;;;6.82;;
44832;SDS011;30569;51.252;9.830;2023-06-26T11:48:37;12.18;;;7.18;;
44832;SDS011;30569;51.252;9.830;2023-06-26T11:51:04;9.07;;;5.90;;
44832;SDS011;30569;51.252;9.830;2023-06-26T11:53:30;10.02;;;6.03;;
44832;SDS011;30569;51.252;9.830;2023-06-26T11:55:56;9.60;;;6.03;;
44832;SDS011;30569;51.252;9.830;2023-06-26T11:58:22;9.68;;;6.10;;
44832;SDS011;30569;51.252;9.830;2023-06-26T12:00:48;9.52;;;6.20;;
44832;SDS011;30569;51.252;9.830;2023-06-26T12:03:13;9.77;;;6.47;;
44832;SDS011;30569;51.252;9.830;2023-06-26T12:05:40;13.25;;;6.80;;
44832;SDS011;30569;51.252;9.830;2023-06-26T12:08:06;10.50;;;5.95;;
44832;SDS011;30569;51.252;9.830;2023-06-26T12:10:32;12.05;;;6.20;;
44832;SDS011;30569;51.252;9.830;2023-06-26T12:12:58;10.40;;;6.43;;
44832;SDS011;30569;51.252;9.830;2023-06-26T12:15:26;10.90;;;7.35;;
44832;SDS011;30569;51.252;9.830;2023-06-26T12:17:53;11.95;;;6.57;;
44832;SDS011;30569;51.252;9.830;2023-06-26T12:20:19;11.65;;;7.53;;
44832;SDS011;30569;51.252;9.830;2023-06-26T12:22:50;10.25;;;6.30;;
44832;SDS011;30569;51.252;9.830;2023-06-26T12:25:21;13.57;;;7.30;;
44832;SDS011;30569;51.252;9.830;2023-06-26T12:27:49;14.57;;;6.93;;
44832;SDS011;30569;51.252;9.830;2023-06-26T12:30:15;11.18;;;6.72;;
44832;SDS011;30569;51.252;9.830;2023-06-26T12:32:43;11.15;;;7.47;;
44832;SDS011;30569;51.252;9.830;2023-06-26T12:35:10;9.98;;;6.75;;
44832;SDS011;30569;51.252;9.830;2023-06-26T12:37:37;10.30;;;7.28;;
44832;SDS011;30569;51.252;9.830;2023-06-26T12:40:05;8.88;;;5.80;;
44832;SDS011;30569;51.252;9.830;2023-06-26T12:42:42;9.38;;;5.95;;
44832;SDS011;30569;51.252;9.830;2023-06-26T12:45:11;10.68;;;6.28;;
44832;SDS011;30569;51.252;9.830;2023-06-26T12:47:38;9.75;;;5.82;;
44832;SDS011;30569;51.252;9.830;2023-06-26T12:50:06;9.68;;;6.30;;
44832;SDS011;30569;51.252;9.830;2023-06-26T12:52:32;11.32;;;6.32;;
44832;SDS011;30569;51.252;9.830;2023-06-26T12:54:58;10.77;;;6.30;;
44832;SDS011;30569;51.252;9.830;2023-06-26T12:57:24;13.02;;;5.97;;
44832;SDS011;30569;51.252;9.830;2023-06-26T12:59:51;12.57;;;6.15;;
44832;SDS011;30569;51.252;9.830;2023-06-26T13:02:16;10.50;;;6.63;;
44832;SDS011;30569;51.252;9.830;2023-06-26T13:04:42;11.77;;;6.32;;
44832;SDS011;30569;51.252;9.830;2023-06-26T13:07:09;11.80;;;6.30;;
44832;SDS011;30569;51.252;9.830;2023-06-26T13:09:35;11.00;;;6.43;;
44832;SDS011;30569;51.252;9.830;2023-06-26T13:12:02;10.82;;;6.28;;
44832;SDS011;30569;51.252;9.830;2023-06-26T13:14:28;15.75;;;6.03;;
44832;SDS011;30569;51.252;9.830;2023-06-26T13:16:54;13.60;;;6.75;;
44832;SDS011;30569;51.252;9.830;2023-06-26T13:19:20;12.50;;;6.68;;
44832;SDS011;30569;51.252;9.830;2023-06-26T13:21:45;10.77;;;6.50;;
44832;SDS011;30569;51.252;9.830;2023-06-26T13:24:11;11.98;;;6.63;;
44832;SDS011;30569;51.252;9.830;2023-06-26T13:26:37;9.40;;;6.32;;
44832;SDS011;30569;51.252;9.830;2023-06-26T13:29:03;11.73;;;6.10;;
44832;SDS011;30569;51.252;9.830;2023-06-26T13:31:29;9.50;;;6.05;;
44832;SDS011;30569;51.252;9.830;2023-06-26T13:33:56;12.20;;;6.03;;
44832;SDS011;30569;51.252;9.830;2023-06-26T13:36:23;9.13;;;6.03;;
44832;SDS011;30569;51.252;9.830;2023-06-26T13:38:49;10.05;;;6.35;;
44832;SDS011;30569;51.252;9.830;2023-06-26T13:41:20;11.73;;;6.50;;
44832;SDS011;30569;51.252;9.830;2023-06-26T13:43:49;11.40;;;6.45;;
44832;SDS011;30569;51.252;9.830;2023-06-26T13:46:15;13.25;;;6.75;;
44832;SDS011;30569;51.252;9.830;2023-06-26T13:48:41;9.27;;;6.47;;
44832;SDS011;30569;51.252;9.830;2023-06-26T13:51:06;12.52;;;6.00;;
44832;SDS011;30569;51.252;9.830;2023-06-26T13:53:32;10.25;;;6.60;;
44832;SDS011;30569;51.252;9.830;2023-06-26T13:55:57;12.48;;;6.20;;
44832;SDS011;30569;51.252;9.830;2023-06-26T13:58:23;9.90;;;6.20;;
44832;SDS011;30569;51.252;9.830;2023-06-26T14:00:51;12.55;;;6.03;;
44832;SDS011;30569;51.252;9.830;2023-06-26T14:03:17;13.30;;;6.68;;
44832;SDS011;30569;51.252;9.830;2023-06-26T14:05:43;11.18;;;6.43;;
44832;SDS011;30569;51.252;9.830;2023-06-26T14:08:08;12.77;;;6.57;;
44832;SDS011;30569;51.252;9.830;2023-06-26T14:10:35;13.05;;;5.85;;
44832;SDS011;30569;51.252;9.830;2023-06-26T14:13:02;14.18;;;6.40;;
44832;SDS011;30569;51.252;9.830;2023-06-26T14:15:28;12.85;;;6.50;;
44832;SDS011;30569;51.252;9.830;2023-06-26T14:17:54;9.63;;;6.07;;
44832;SDS011;30569;51.252;9.830;2023-06-26T14:20:21;9.27;;;5.72;;
44832;SDS011;30569;51.252;9.830;2023-06-26T14:22:47;10.75;;;5.25;;
44832;SDS011;30569;51.252;9.830;2023-06-26T14:25:14;9.48;;;5.38;;
44832;SDS011;30569;51.252;9.830;2023-06-26T14:27:39;10.57;;;4.53;;
44832;SDS011;30569;51.252;9.830;2023-06-26T14:30:06;9.23;;;4.82;;
44832;SDS011;30569;51.252;9.830;2023-06-26T14:32:32;8.70;;;4.75;;
44832;SDS011;30569;51.252;9.830;2023-06-26T14:34:58;10.65;;;4.85;;
44832;SDS011;30569;51.252;9.830;2023-06-26T14:37:25;8.63;;;4.00;;
44832;SDS011;30569;51.252;9.830;2023-06-26T14:39:51;7.95;;;4.30;;
44832;SDS011;30569;51.252;9.830;2023-06-26T14:42:16;8.15;;;4.07;;
44832;SDS011;30569;51.252;9.830;2023-06-26T14:44:42;9.60;;;4.18;;
44832;SDS011;30569;51.252;9.830;2023-06-26T14:47:08;9.10;;;3.70;;
44832;SDS011;30569;51.252;9.830;2023-06-26T14:49:34;7.93;;;3.70;;
44832;SDS011;30569;51.252;9.830;2023-06-26T14:52:00;7.97;;;3.60;;
44832;SDS011;30569;51.252;9.830;2023-06-26T14:54:25;8.07;;;4.10;;
44832;SDS011;30569;51.252;9.830;2023-06-26T14:56:51;8.20;;;3.45;;